createdAt,value
2023-01-23T00:00:15.014Z,13.6
2023-01-23T00:01:22.222Z,14.5
2023-01-23T00:02:29.186Z,13.6
2023-01-23T00:03:36.189Z,12.5
2023-01-23T00:04:43.139Z,13.8
2023-01-23T00:05:50.555Z,13.6
2023-01-23T00:07:00.396Z,13.7
2023-01-23T00:08:07.897Z,13.9
2023-01-23T00:09:14.815Z,14.9
2023-01-23T00:10:21.954Z,13.9
2023-01-23T00:11:28.670Z,13.8
2023-01-23T00:12:36.133Z,13
2023-01-23T00:13:46.622Z,12.5
2023-01-23T00:14:53.371Z,12.4
2023-01-23T00:16:00.496Z,12.3
2023-01-23T00:17:10.219Z,13.1
2023-01-23T00:18:17.202Z,12.5
2023-01-23T00:19:24.661Z,12.9
2023-01-23T00:20:31.602Z,12.5
2023-01-23T00:21:41.137Z,12.3
2023-01-23T00:22:48.118Z,12.1
2023-01-23T00:23:55.076Z,12.5
2023-01-23T00:25:02.145Z,12.4
2023-01-23T00:26:09.187Z,12.4
2023-01-23T00:27:16.277Z,12.9
2023-01-23T00:28:23.304Z,12.6
2023-01-23T00:29:30.333Z,13
2023-01-23T00:30:37.966Z,13
2023-01-23T00:31:46.280Z,12.8
2023-01-23T00:32:53.930Z,12.4
2023-01-23T00:34:00.903Z,12.9
2023-01-23T00:35:07.859Z,12.8
2023-01-23T00:36:14.859Z,11.6
2023-01-23T00:37:21.845Z,11.9
2023-01-23T00:38:28.853Z,12.3
2023-01-23T00:39:35.875Z,12.9
2023-01-23T00:40:42.832Z,11.6
2023-01-23T00:41:49.796Z,11.3
2023-01-23T00:42:57.278Z,12.7
2023-01-23T00:44:04.329Z,12.3
2023-01-23T00:45:11.598Z,12.9
2023-01-23T00:46:18.496Z,11.8
2023-01-23T00:47:25.363Z,12.8
2023-01-23T00:48:32.369Z,12.6
2023-01-23T00:49:39.515Z,12.9
2023-01-23T00:50:46.471Z,11.9
2023-01-23T00:51:53.426Z,12.1
2023-01-23T00:53:01.079Z,12
2023-01-23T00:54:09.054Z,12
2023-01-23T00:55:16.043Z,12.3
2023-01-23T00:56:23.028Z,12.5
2023-01-23T00:57:30.146Z,12.2
2023-01-23T00:58:37.126Z,12.4
2023-01-23T00:59:44.208Z,12.4
2023-01-23T01:00:52.307Z,12.7
2023-01-23T01:01:59.193Z,13
2023-01-23T01:03:06.762Z,13.4
2023-01-23T01:04:13.828Z,12.8
2023-01-23T01:05:21.480Z,13.5
2023-01-23T01:06:28.415Z,12.8
2023-01-23T01:07:35.382Z,13.2
2023-01-23T01:08:42.339Z,13.8
2023-01-23T01:09:50.163Z,14.4
2023-01-23T01:10:57.133Z,14.2
2023-01-23T01:12:04.117Z,13.9
2023-01-23T01:13:11.319Z,15.3
2023-01-23T01:14:18.850Z,13.7
2023-01-23T01:15:25.766Z,13.9
2023-01-23T01:16:32.871Z,13.7
2023-01-23T01:17:39.879Z,12.8
2023-01-23T01:18:46.843Z,13.4
2023-01-23T01:19:53.823Z,12.8
2023-01-23T01:21:01.336Z,13.3
2023-01-23T01:22:12.613Z,13.5
2023-01-23T01:23:20.098Z,13.3
2023-01-23T01:24:27.032Z,13.5
2023-01-23T01:25:34.194Z,13.4
2023-01-23T01:26:41.232Z,13.5
2023-01-23T01:27:50.108Z,14.2
2023-01-23T01:28:57.194Z,14
2023-01-23T01:30:04.246Z,14.2
2023-01-23T01:31:11.391Z,13.7
2023-01-23T01:32:18.432Z,14.5
2023-01-23T01:33:25.841Z,14
2023-01-23T01:34:32.827Z,13.3
2023-01-23T01:35:39.782Z,13
2023-01-23T01:36:47.183Z,13.4
2023-01-23T01:37:55.044Z,13.2
2023-01-23T01:39:02.226Z,13
2023-01-23T01:40:10.137Z,12.4
2023-01-23T01:41:17.663Z,13.2
2023-01-23T01:42:24.690Z,12.7
2023-01-23T01:43:31.698Z,11.5
2023-01-23T01:44:39.707Z,11.7
2023-01-23T01:45:51.807Z,12.4
2023-01-23T01:47:04.451Z,11.5
2023-01-23T01:48:11.599Z,11.6
2023-01-23T01:49:18.446Z,12.7
2023-01-23T01:50:28.733Z,11.7
2023-01-23T01:51:36.691Z,12
2023-01-23T01:52:51.861Z,11.7
2023-01-23T01:53:58.826Z,12.6
2023-01-23T01:55:08.490Z,12.1
2023-01-23T01:56:15.394Z,11.9
2023-01-23T01:57:23.331Z,12.8
2023-01-23T01:58:30.931Z,12.1
2023-01-23T01:59:38.902Z,12.7
2023-01-23T02:00:45.998Z,13.3
2023-01-23T02:01:53.773Z,12.8
2023-01-23T02:03:05.943Z,14
2023-01-23T02:04:13.187Z,13.9
2023-01-23T02:05:20.028Z,13.3
2023-01-23T02:06:35.729Z,14.5
2023-01-23T02:07:43.586Z,14.7
2023-01-23T02:08:53.394Z,14.9
2023-01-23T02:10:08.159Z,15.6
2023-01-23T02:11:15.210Z,15.5
2023-01-23T02:12:22.242Z,16.1
2023-01-23T02:13:29.133Z,15.4
2023-01-23T02:14:37.106Z,15.6
2023-01-23T02:15:44.582Z,16
2023-01-23T02:16:51.529Z,15.5
2023-01-23T02:17:58.554Z,15.3
2023-01-23T02:19:05.626Z,14.6
2023-01-23T02:20:15.494Z,15.9
2023-01-23T02:21:24.948Z,12.6
2023-01-23T02:22:29.426Z,13
2023-01-23T02:23:44.787Z,13.7
2023-01-23T02:24:59.938Z,13.5
2023-01-23T02:26:07.074Z,14
2023-01-23T02:27:16.882Z,14.2
2023-01-23T02:28:24.158Z,13.2
2023-01-23T02:29:39.574Z,13.2
2023-01-23T02:30:46.520Z,12.6
2023-01-23T02:31:53.485Z,13.4
2023-01-23T02:33:00.562Z,13.1
2023-01-23T02:34:12.841Z,11.9
2023-01-23T02:35:20.016Z,13
2023-01-23T02:36:27.681Z,12.3
2023-01-23T02:37:34.612Z,11.7
2023-01-23T02:38:41.569Z,11.6
2023-01-23T02:39:54.513Z,12.5
2023-01-23T02:41:01.833Z,12.7
2023-01-23T02:42:08.791Z,10.9
2023-01-23T02:43:16.400Z,10.9
2023-01-23T02:44:24.090Z,11
2023-01-23T02:45:34.066Z,11.1
2023-01-23T02:46:41.041Z,10.8
2023-01-23T02:47:47.997Z,11
2023-01-23T02:48:55.446Z,11.2
2023-01-23T02:50:03.258Z,11.3
2023-01-23T02:51:10.581Z,11.3
2023-01-23T02:52:17.360Z,10.7
2023-01-23T02:53:24.242Z,11.7
2023-01-23T02:54:31.225Z,11.6
2023-01-23T02:55:39.003Z,11.8
2023-01-23T02:56:46.421Z,11.4
2023-01-23T02:57:53.796Z,11.9
2023-01-23T02:59:05.833Z,12.6
2023-01-23T03:00:18.683Z,12.2
2023-01-23T03:01:25.406Z,12.5
2023-01-23T03:02:32.949Z,12.8
2023-01-23T03:03:39.925Z,12.2
2023-01-23T03:04:46.944Z,12.7
2023-01-23T03:05:54.639Z,12.1
2023-01-23T03:07:01.757Z,12.5
2023-01-23T03:08:08.646Z,13.1
2023-01-23T03:09:15.672Z,13.2
2023-01-23T03:10:23.144Z,13
2023-01-23T03:11:30.448Z,12.8
2023-01-23T03:12:37.425Z,11.9
2023-01-23T03:13:45.384Z,12
2023-01-23T03:14:52.406Z,12.1
2023-01-23T03:15:59.435Z,12.1
2023-01-23T03:17:06.532Z,11.5
2023-01-23T03:18:13.571Z,12.6
2023-01-23T03:19:20.570Z,12.5
2023-01-23T03:20:28.008Z,12.3
2023-01-23T03:21:35.121Z,13.4
2023-01-23T03:22:42.359Z,13.1
2023-01-23T03:23:49.288Z,13
2023-01-23T03:24:56.302Z,13
2023-01-23T03:26:03.184Z,13.2
2023-01-23T03:27:10.315Z,13.4
2023-01-23T03:28:17.273Z,13
2023-01-23T03:29:30.405Z,13.4
2023-01-23T03:30:42.523Z,13.7
2023-01-23T03:31:49.500Z,13
2023-01-23T03:32:56.495Z,13.3
2023-01-23T03:34:03.720Z,13.8
2023-01-23T03:35:10.685Z,12.9
2023-01-23T03:36:17.721Z,13
2023-01-23T03:37:25.605Z,13.2
2023-01-23T03:38:33.910Z,12.9
2023-01-23T03:39:40.773Z,11.3
2023-01-23T03:40:52.945Z,11.1
2023-01-23T03:42:05.035Z,10.8
2023-01-23T03:43:12.053Z,11.8
2023-01-23T03:44:18.996Z,11.2
2023-01-23T03:45:26.524Z,10
2023-01-23T03:46:33.497Z,9.6
2023-01-23T03:47:42.261Z,10.7
2023-01-23T03:48:49.209Z,11.3
2023-01-23T03:49:56.194Z,10.7
2023-01-23T03:51:03.170Z,10.8
2023-01-23T03:52:10.032Z,11.5
2023-01-23T03:53:17.077Z,11.7
2023-01-23T03:54:25.132Z,11.5
2023-01-23T03:55:31.949Z,10.3
2023-01-23T03:56:39.412Z,9.3
2023-01-23T03:57:46.389Z,9.9
2023-01-23T03:58:54.697Z,10.1
2023-01-23T04:00:02.645Z,10.6
2023-01-23T04:01:10.023Z,10.7
2023-01-23T04:02:16.993Z,10.7
2023-01-23T04:03:24.902Z,10.3
2023-01-23T04:04:31.980Z,10.9
2023-01-23T04:05:38.941Z,11.2
2023-01-23T04:06:46.088Z,9.7
2023-01-23T04:07:53.172Z,10.9
2023-01-23T04:09:00.170Z,10.9
2023-01-23T04:10:08.270Z,11.1
2023-01-23T04:11:15.149Z,10.7
2023-01-23T04:12:23.034Z,11.8
2023-01-23T04:13:30.232Z,11
2023-01-23T04:14:37.261Z,11
2023-01-23T04:15:44.172Z,11
2023-01-23T04:16:52.319Z,11.2
2023-01-23T04:17:59.322Z,11.7
2023-01-23T04:19:06.837Z,10.9
2023-01-23T04:20:13.830Z,11.7
2023-01-23T04:21:20.837Z,10.7
2023-01-23T04:22:28.766Z,11
2023-01-23T04:23:35.749Z,12
2023-01-23T04:24:42.739Z,10.6
2023-01-23T04:25:50.760Z,11.5
2023-01-23T04:26:58.512Z,11
2023-01-23T04:28:06.243Z,10.8
2023-01-23T04:29:13.317Z,10.9
2023-01-23T04:30:20.625Z,10.9
2023-01-23T04:31:28.170Z,11.5
2023-01-23T04:32:35.057Z,10.8
2023-01-23T04:33:42.029Z,11.8
2023-01-23T04:34:49.135Z,11.1
2023-01-23T04:35:56.067Z,11.2
2023-01-23T04:37:03.481Z,12.5
2023-01-23T04:38:10.505Z,13.3
2023-01-23T04:39:18.505Z,12.6
2023-01-23T04:40:25.482Z,12.9
2023-01-23T04:41:32.803Z,13.2
2023-01-23T04:42:41.198Z,13.6
2023-01-23T04:43:46.957Z,13.2
2023-01-23T04:44:53.942Z,12.8
2023-01-23T04:46:01.799Z,12.6
2023-01-23T04:47:08.732Z,12
2023-01-23T04:48:16.694Z,12.5
2023-01-23T04:49:23.685Z,12.1
2023-01-23T04:50:31.162Z,12.3
2023-01-23T04:51:38.162Z,12.4
2023-01-23T04:52:45.633Z,11.4
2023-01-23T04:53:52.561Z,12.6
2023-01-23T04:54:59.539Z,12.4
2023-01-23T04:56:07.113Z,12.7
2023-01-23T04:57:14.999Z,12.1
2023-01-23T04:58:22.192Z,12.6
2023-01-23T04:59:29.148Z,12.4
2023-01-23T05:00:36.328Z,12.2
2023-01-23T05:01:43.369Z,11.5
2023-01-23T05:02:50.806Z,12.6
2023-01-23T05:03:57.783Z,12
2023-01-23T05:05:05.761Z,11.9
2023-01-23T05:06:13.293Z,11.4
2023-01-23T05:07:20.261Z,11.8
2023-01-23T05:08:28.668Z,11.5
2023-01-23T05:09:35.755Z,11.3
2023-01-23T05:10:43.010Z,11.8
2023-01-23T05:11:49.995Z,11.5
2023-01-23T05:12:57.601Z,11.4
2023-01-23T05:14:04.459Z,12
2023-01-23T05:15:11.420Z,11.3
2023-01-23T05:16:18.442Z,11.3
2023-01-23T05:17:25.591Z,11.2
2023-01-23T05:18:32.548Z,11.9
2023-01-23T05:19:39.665Z,11.7
2023-01-23T05:20:47.697Z,11.7
2023-01-23T05:21:54.669Z,12.4
2023-01-23T05:23:01.655Z,11.7
2023-01-23T05:24:09.487Z,12.9
2023-01-23T05:25:16.413Z,12.5
2023-01-23T05:26:23.536Z,13.3
2023-01-23T05:27:31.787Z,13.3
2023-01-23T05:28:38.880Z,13.2
2023-01-23T05:29:45.779Z,12.9
2023-01-23T05:30:53.288Z,13.6
2023-01-23T05:32:00.553Z,13.3
2023-01-23T05:33:08.094Z,13.4
2023-01-23T05:34:15.105Z,13.1
2023-01-23T05:35:22.072Z,13.8
2023-01-23T05:36:29.288Z,14.1
2023-01-23T05:37:36.248Z,14.2
2023-01-23T05:38:43.221Z,15.8
2023-01-23T05:39:50.189Z,16.7
2023-01-23T05:40:58.510Z,16.1
2023-01-23T05:42:07.295Z,16.5
2023-01-23T05:43:14.558Z,15.9
2023-01-23T05:44:21.821Z,15.3
2023-01-23T05:45:28.663Z,14.8
2023-01-23T05:46:35.685Z,15.9
2023-01-23T05:47:43.115Z,14.6
2023-01-23T05:48:50.131Z,16.4
2023-01-23T05:49:57.171Z,16.4
2023-01-23T05:51:04.879Z,15.9
2023-01-23T05:52:11.751Z,18
2023-01-23T05:53:18.724Z,19.1
2023-01-23T05:54:25.670Z,16.9
2023-01-23T05:55:33.122Z,17.1
2023-01-23T05:56:42.816Z,17.3
2023-01-23T05:57:49.797Z,19
2023-01-23T05:58:57.905Z,17.3
2023-01-23T06:00:05.141Z,17.9
2023-01-23T06:01:12.266Z,17.8
2023-01-23T06:02:19.244Z,19
2023-01-23T06:03:26.513Z,20.5
2023-01-23T06:04:33.429Z,19.4
2023-01-23T06:05:40.923Z,20.5
2023-01-23T06:06:48.188Z,20
2023-01-23T06:07:55.168Z,18.8
2023-01-23T06:09:02.172Z,19.6
2023-01-23T06:10:10.114Z,22.1
2023-01-23T06:11:16.828Z,21.7
2023-01-23T06:12:24.003Z,21.3
2023-01-23T06:13:31.490Z,22
2023-01-23T06:14:39.162Z,22.2
2023-01-23T06:15:46.963Z,22.4
2023-01-23T06:16:53.709Z,21.2
2023-01-23T06:18:00.867Z,23.1
2023-01-23T06:19:07.741Z,22.8
2023-01-23T06:20:14.693Z,21.1
2023-01-23T06:21:21.645Z,22
2023-01-23T06:22:30.618Z,22.6
2023-01-23T06:23:35.530Z,21.4
2023-01-23T06:24:42.493Z,21.8
2023-01-23T06:25:49.975Z,22.5
2023-01-23T06:26:56.997Z,22.4
2023-01-23T06:28:03.982Z,22.8
2023-01-23T06:29:11.933Z,23.4
2023-01-23T06:30:20.453Z,26
2023-01-23T06:31:27.387Z,30.8
2023-01-23T06:32:34.202Z,28.6
2023-01-23T06:33:41.157Z,31.9
2023-01-23T06:34:48.157Z,33.5
2023-01-23T06:35:55.232Z,35.8
2023-01-23T06:37:05.354Z,40.7
2023-01-23T06:38:12.392Z,38.7
2023-01-23T06:39:19.312Z,39.4
2023-01-23T06:40:26.317Z,34.8
2023-01-23T06:41:33.471Z,32.4
2023-01-23T06:42:40.965Z,32.1
2023-01-23T06:43:48.023Z,31.5
2023-01-23T06:44:55.179Z,29.3
2023-01-23T06:46:02.685Z,29.6
2023-01-23T06:47:12.794Z,29
2023-01-23T06:48:20.593Z,29
2023-01-23T06:49:28.407Z,28.7
2023-01-23T06:50:36.338Z,28.4
2023-01-23T06:51:43.404Z,28
2023-01-23T06:52:50.427Z,29
2023-01-23T06:53:57.456Z,29
2023-01-23T06:55:04.575Z,26.9
2023-01-23T06:56:11.919Z,27.6
2023-01-23T06:57:18.815Z,28.6
2023-01-23T06:58:25.909Z,26.8
2023-01-23T06:59:33.048Z,27.4
2023-01-23T07:00:39.994Z,28
2023-01-23T07:01:47.033Z,25.4
2023-01-23T07:02:54.436Z,24.8
2023-01-23T07:04:01.572Z,25.2
2023-01-23T07:05:10.216Z,24.7
2023-01-23T07:06:17.169Z,26
2023-01-23T07:07:24.285Z,25.9
2023-01-23T07:08:31.433Z,26.4
2023-01-23T07:09:38.563Z,25.7
2023-01-23T07:10:45.664Z,26
2023-01-23T07:11:52.858Z,24.8
2023-01-23T07:13:00.383Z,25
2023-01-23T07:14:10.873Z,25.7
2023-01-23T07:15:17.849Z,25.3
2023-01-23T07:16:24.928Z,25.5
2023-01-23T07:17:32.785Z,24.4
2023-01-23T07:18:39.851Z,24.5
2023-01-23T07:19:46.760Z,24.8
2023-01-23T07:20:54.644Z,23.3
2023-01-23T07:22:02.559Z,24.3
2023-01-23T07:23:10.078Z,22.3
2023-01-23T07:24:17.083Z,23.4
2023-01-23T07:25:24.568Z,22.4
2023-01-23T07:26:32.388Z,22.2
2023-01-23T07:27:39.725Z,22.6
2023-01-23T07:28:46.613Z,22.5
2023-01-23T07:29:53.712Z,23
2023-01-23T07:31:00.882Z,22.6
2023-01-23T07:32:10.046Z,23.8
2023-01-23T07:33:15.584Z,23.2
2023-01-23T07:34:22.738Z,22.5
2023-01-23T07:35:29.530Z,23.5
2023-01-23T07:36:36.555Z,23.6
2023-01-23T07:37:43.711Z,23.3
2023-01-23T07:38:52.029Z,22.4
2023-01-23T07:39:58.978Z,22.6
2023-01-23T07:41:06.840Z,22.8
2023-01-23T07:42:13.770Z,21.9
2023-01-23T07:43:21.217Z,22.4
2023-01-23T07:44:28.228Z,22.2
2023-01-23T07:45:35.224Z,21.7
2023-01-23T07:46:42.164Z,22.8
2023-01-23T07:47:49.510Z,21.5
2023-01-23T07:48:56.456Z,21.4
2023-01-23T07:50:03.622Z,23.7
2023-01-23T07:51:10.645Z,22.9
2023-01-23T07:52:18.097Z,22.1
2023-01-23T07:53:25.060Z,24.4
2023-01-23T07:54:32.608Z,23.9
2023-01-23T07:55:40.141Z,25.4
2023-01-23T07:56:48.424Z,24.7
2023-01-23T07:57:55.352Z,27.2
2023-01-23T07:59:02.824Z,27.5
2023-01-23T08:00:10.695Z,24.6
2023-01-23T08:01:18.303Z,25.5
2023-01-23T08:02:25.617Z,24.8
2023-01-23T08:03:32.486Z,24.9
2023-01-23T08:04:39.332Z,24.6
2023-01-23T08:05:46.922Z,24.8
2023-01-23T08:06:53.784Z,24.1
2023-01-23T08:08:12.397Z,25.8
2023-01-23T08:09:08.441Z,26.2
2023-01-23T08:10:15.412Z,28.5
2023-01-23T08:11:23.272Z,30.6
2023-01-23T08:12:30.725Z,28.5
2023-01-23T08:13:37.733Z,27.7
2023-01-23T08:14:45.158Z,30.5
2023-01-23T08:15:52.717Z,28.2
2023-01-23T08:16:59.610Z,29
2023-01-23T08:18:06.468Z,28.1
2023-01-23T08:19:13.481Z,26.1
2023-01-23T08:20:20.725Z,22.9
2023-01-23T08:21:27.587Z,23.6
2023-01-23T08:22:34.607Z,24.1
2023-01-23T08:23:41.598Z,24.8
2023-01-23T08:24:48.678Z,25.6
2023-01-23T08:25:56.073Z,26.3
2023-01-23T08:27:03.224Z,27.9
2023-01-23T08:28:10.404Z,29
2023-01-23T08:29:17.493Z,28.4
2023-01-23T08:30:24.509Z,27.9
2023-01-23T08:31:32.435Z,28.9
2023-01-23T08:32:39.573Z,27.8
2023-01-23T08:33:46.648Z,26
2023-01-23T08:34:53.687Z,25.4
2023-01-23T08:36:00.747Z,25.3
2023-01-23T08:37:08.401Z,26.8
2023-01-23T08:38:15.417Z,26.3
2023-01-23T08:39:23.888Z,26.4
2023-01-23T08:40:31.488Z,26.8
2023-01-23T08:41:38.528Z,26.5
2023-01-23T08:42:45.715Z,26.6
2023-01-23T08:43:52.753Z,25.9
2023-01-23T08:45:00.509Z,28.4
2023-01-23T08:46:07.941Z,29.7
2023-01-23T08:47:15.801Z,29.9
2023-01-23T08:48:22.824Z,30.9
2023-01-23T08:49:30.209Z,30.3
2023-01-23T08:50:38.673Z,31.1
2023-01-23T08:51:45.622Z,29.3
2023-01-23T08:52:53.600Z,30.3
2023-01-23T08:54:01.468Z,29.7
2023-01-23T08:55:09.857Z,28.8
2023-01-23T08:56:17.332Z,27.1
2023-01-23T08:57:24.745Z,25.3
2023-01-23T08:58:31.656Z,24.1
2023-01-23T08:59:38.892Z,25.2
2023-01-23T09:00:46.253Z,24.7
2023-01-23T09:01:53.226Z,25.3
2023-01-23T09:03:00.243Z,25.5
2023-01-23T09:04:07.390Z,24.7
2023-01-23T09:05:14.361Z,25.9
2023-01-23T09:06:21.338Z,26.2
2023-01-23T09:07:28.476Z,26.6
2023-01-23T09:08:36.571Z,25.7
2023-01-23T09:09:43.326Z,27.6
2023-01-23T09:10:51.131Z,26.7
2023-01-23T09:11:58.169Z,28.3
2023-01-23T09:13:05.222Z,27.8
2023-01-23T09:14:12.370Z,29.9
2023-01-23T09:15:19.869Z,30.2
2023-01-23T09:16:26.895Z,32.1
2023-01-23T09:17:34.064Z,31
2023-01-23T09:18:41.051Z,29.8
2023-01-23T09:19:48.149Z,53.4
2023-01-23T09:20:56.200Z,41.8
2023-01-23T09:22:03.201Z,38.4
2023-01-23T09:23:10.200Z,33.1
2023-01-23T09:24:17.307Z,32.9
2023-01-23T09:25:24.173Z,35
2023-01-23T09:26:31.939Z,30.3
2023-01-23T09:27:39.734Z,32.3
2023-01-23T09:28:46.881Z,29.1
2023-01-23T09:29:54.310Z,29.2
2023-01-23T09:31:01.308Z,32.3
2023-01-23T09:32:08.325Z,31.2
2023-01-23T09:33:15.333Z,32.9
2023-01-23T09:34:22.353Z,29.7
2023-01-23T09:35:29.347Z,29.8
2023-01-23T09:36:43.085Z,27.8
2023-01-23T09:37:43.724Z,30.9
2023-01-23T09:38:56.272Z,31.1
2023-01-23T09:40:03.769Z,30.7
2023-01-23T09:41:10.860Z,30.4
2023-01-23T09:42:20.753Z,30.1
2023-01-23T09:43:27.790Z,29.7
2023-01-23T09:44:35.309Z,32.8
2023-01-23T09:45:45.666Z,36.9
2023-01-23T09:47:02.918Z,29.3
2023-01-23T09:48:09.977Z,31.2
2023-01-23T09:49:22.195Z,32.6
2023-01-23T09:50:29.275Z,33.3
2023-01-23T09:51:36.424Z,33.2
2023-01-23T09:52:49.469Z,33.9
2023-01-23T09:53:56.609Z,39.7
2023-01-23T09:55:03.850Z,32.8
2023-01-23T09:56:17.114Z,32.2
2023-01-23T09:57:31.932Z,40.3
2023-01-23T09:58:39.771Z,36.9
2023-01-23T09:59:59.018Z,37.5
2023-01-23T10:00:55.873Z,36.1
2023-01-23T10:02:04.637Z,33.8
2023-01-23T10:03:20.169Z,35.3
2023-01-23T10:04:27.210Z,33.7
2023-01-23T10:05:35.446Z,33.5
2023-01-23T10:06:46.518Z,34
2023-01-23T10:07:59.129Z,50.4
2023-01-23T10:09:16.499Z,28.2
2023-01-23T10:10:27.898Z,31.7
2023-01-23T10:11:45.312Z,33.7
2023-01-23T10:13:00.027Z,27.8
2023-01-23T10:14:07.185Z,26.5
2023-01-23T10:15:22.482Z,27.4
2023-01-23T10:16:48.675Z,28.4
2023-01-23T10:17:44.363Z,31.4
2023-01-23T10:18:51.451Z,30
2023-01-23T10:20:08.791Z,29.6
2023-01-23T10:21:26.668Z,25.8
2023-01-23T10:22:41.938Z,27.9
2023-01-23T10:23:55.258Z,26.7
2023-01-23T10:25:07.746Z,28.4
2023-01-23T10:26:15.540Z,27.4
2023-01-23T10:27:25.369Z,29.1
2023-01-23T10:28:37.409Z,29.3
2023-01-23T10:29:44.483Z,29.1
2023-01-23T10:30:56.712Z,27.4
2023-01-23T10:32:03.742Z,27.7
2023-01-23T10:33:11.064Z,27.7
2023-01-23T10:34:18.169Z,28.9
2023-01-23T10:35:26.058Z,25.8
2023-01-23T10:36:47.708Z,27.6
2023-01-23T10:37:54.527Z,26.5
2023-01-23T10:39:09.442Z,25.8
2023-01-23T10:40:16.453Z,25
2023-01-23T10:41:24.611Z,24.8
2023-01-23T10:42:31.799Z,24.2
2023-01-23T10:43:38.951Z,25.4
2023-01-23T10:44:51.108Z,24.9
2023-01-23T10:45:59.296Z,26.4
2023-01-23T10:47:06.238Z,25.6
2023-01-23T10:48:16.855Z,27.1
2023-01-23T10:49:34.435Z,25.8
2023-01-23T10:50:41.831Z,24.9
2023-01-23T10:51:50.383Z,24.8
2023-01-23T10:52:57.859Z,22.4
2023-01-23T10:54:12.987Z,22.5
2023-01-23T10:55:18.440Z,22.9
2023-01-23T10:56:25.340Z,22.3
2023-01-23T10:57:32.338Z,21.8
2023-01-23T10:58:39.432Z,22.1
2023-01-23T10:59:47.793Z,21.3
2023-01-23T11:01:06.988Z,23.1
2023-01-23T11:02:21.867Z,24.2
2023-01-23T11:03:31.404Z,24
2023-01-23T11:28:15.509Z,22.9
2023-01-23T11:29:32.871Z,22.8
2023-01-23T11:30:54.145Z,24
2023-01-23T11:31:58.908Z,24
2023-01-23T11:33:06.704Z,24.2
2023-01-23T11:34:19.293Z,20.9
2023-01-23T11:35:26.286Z,22.1
2023-01-23T11:36:43.553Z,23.1
2023-01-23T11:37:56.346Z,23.4
2023-01-23T11:39:03.249Z,24.3
2023-01-23T11:40:15.475Z,25.5
2023-01-23T11:41:22.504Z,23.5
2023-01-23T11:42:32.525Z,25.6
2023-01-23T11:43:39.611Z,22.3
2023-01-23T11:44:46.871Z,24.3
2023-01-23T11:45:53.459Z,23.6
2023-01-23T11:47:05.992Z,21.9
2023-01-23T11:48:20.897Z,23.2
2023-01-23T11:49:33.621Z,23.4
2023-01-23T11:50:55.145Z,22.3
2023-01-23T11:51:57.949Z,23.2
2023-01-23T11:53:13.167Z,23.5
2023-01-23T11:54:25.841Z,25.1
2023-01-23T11:55:36.054Z,24.5
2023-01-23T11:56:42.961Z,26.1
2023-01-23T11:58:48.730Z,26.1
2023-01-23T11:59:56.947Z,24.6
2023-01-23T12:01:11.805Z,23.7
2023-01-23T12:02:19.020Z,23.7
2023-01-23T12:03:31.199Z,24.2
2023-01-23T12:04:48.355Z,23.2
2023-01-23T12:06:19.137Z,25.2
2023-01-23T12:07:19.010Z,25.4
2023-01-23T12:08:29.117Z,24.9
2023-01-23T12:20:03.326Z,26.9
2023-01-23T12:21:15.975Z,24.9
2023-01-23T12:22:23.385Z,24.5
2023-01-23T12:23:37.568Z,26.2
2023-01-23T12:24:51.862Z,25
2023-01-23T12:39:51.449Z,25.3
2023-01-23T12:41:11.142Z,27
2023-01-23T12:42:31.634Z,26.2
2023-01-23T12:43:47.048Z,23.4
2023-01-23T13:09:22.384Z,23.8
2023-01-23T13:10:32.139Z,22.5
2023-01-23T13:11:39.127Z,26.5
2023-01-23T13:12:57.657Z,24.5
2023-01-23T13:24:52.724Z,24.5
2023-01-23T13:26:05.574Z,24.3
2023-01-23T13:27:21.291Z,22.9
2023-01-23T13:28:44.788Z,22.5
2023-01-23T13:36:20.007Z,24.5
2023-01-23T13:37:28.824Z,25.4
2023-01-23T13:38:38.967Z,26.4
2023-01-23T13:39:51.024Z,28.4
2023-01-23T13:41:06.919Z,29.4
2023-01-23T13:43:03.312Z,29.4
2023-01-23T13:44:19.106Z,26.8
2023-01-23T13:45:30.963Z,25.2
2023-01-23T13:46:37.788Z,25.5
2023-01-23T13:47:56.154Z,22.6
2023-01-23T14:00:03.634Z,22.6
2023-01-23T14:01:11.893Z,24.4
2023-01-23T14:02:25.051Z,25.2
2023-01-23T14:03:40.065Z,23
2023-01-23T14:04:55.297Z,23.1
2023-01-23T14:38:42.541Z,26.2
2023-01-23T14:39:52.969Z,29.4
2023-01-23T14:40:57.531Z,28.6
2023-01-23T14:42:09.674Z,25.8
2023-01-23T14:47:42.467Z,25.8
2023-01-23T14:48:49.096Z,28.9
2023-01-23T14:49:56.354Z,28.1
2023-01-23T14:51:03.781Z,29.5
2023-01-23T14:52:11.023Z,26.9
2023-01-23T15:17:10.136Z,28.8
2023-01-23T15:18:17.842Z,30.8
2023-01-23T15:19:24.723Z,38.6
2023-01-23T15:20:33.116Z,40
2023-01-23T15:21:40.558Z,37.6
2023-01-23T15:36:03.274Z,26.5
2023-01-23T15:37:11.066Z,26.7
2023-01-23T15:38:18.409Z,27.1
2023-01-23T15:39:25.439Z,26.4
2023-01-23T15:40:33.094Z,27.3
2023-01-23T15:41:54.388Z,28
2023-01-23T15:43:11.623Z,27.2
2023-01-23T15:44:18.685Z,27.4
2023-01-23T15:45:25.788Z,28
2023-01-23T15:46:33.197Z,29.4
2023-01-23T15:47:40.553Z,34.8
2023-01-23T15:48:48.374Z,33.4
2023-01-23T15:49:55.349Z,33.5
2023-01-23T15:51:05.939Z,28.7
2023-01-23T15:53:06.131Z,28.7
2023-01-23T15:54:16.640Z,33.1
2023-01-23T15:55:24.114Z,31.1
2023-01-23T15:56:30.901Z,28.3
2023-01-23T15:57:37.765Z,32.1
2023-01-23T15:58:45.634Z,30.6
2023-01-23T15:59:52.716Z,30.2
2023-01-23T16:01:00.351Z,31.7
2023-01-23T16:02:15.234Z,30
2023-01-23T16:03:22.994Z,28.7
2023-01-23T16:04:30.024Z,28.8
2023-01-23T16:05:37.076Z,28.2
2023-01-23T16:06:45.060Z,26.3
2023-01-23T16:07:51.810Z,29.2
2023-01-23T16:09:05.607Z,27.6
2023-01-23T16:10:11.071Z,27.5
2023-01-23T16:11:21.469Z,27
2023-01-23T16:12:28.402Z,27.8
2023-01-23T16:13:36.156Z,29.4
2023-01-23T16:14:43.930Z,26.4
2023-01-23T16:15:51.675Z,28.1
2023-01-23T16:17:08.102Z,28
2023-01-23T16:18:05.580Z,29.7
2023-01-23T16:19:12.524Z,29.4
2023-01-23T16:21:03.796Z,29.4
2023-01-23T16:22:11.736Z,29.1
2023-01-23T16:23:18.488Z,30.6
2023-01-23T16:24:25.445Z,31.9
2023-01-23T16:25:43.304Z,30.9
2023-01-23T16:26:46.613Z,31.9
2023-01-23T16:27:53.525Z,32
2023-01-23T16:29:12.953Z,33.7
2023-01-23T16:30:07.834Z,29.5
2023-01-23T16:31:20.503Z,31.4
2023-01-23T16:33:06.904Z,31.4
2023-01-23T16:34:14.689Z,30.7
2023-01-23T16:35:22.621Z,30.9
2023-01-23T16:36:30.224Z,31.5
2023-01-23T16:37:37.779Z,29.2
2023-01-23T17:24:11.719Z,29.2
2023-01-23T17:25:18.633Z,25.8
2023-01-23T17:26:25.579Z,25.2
2023-01-23T17:27:38.922Z,25.7
2023-01-23T17:28:39.692Z,26.7
2023-01-23T17:29:49.189Z,26.6
2023-01-23T17:30:57.664Z,25.5
2023-01-23T17:32:05.296Z,25
2023-01-23T17:33:12.182Z,25.5
2023-01-23T17:34:22.568Z,25.8
2023-01-23T17:41:33.224Z,28.4
2023-01-23T17:42:41.181Z,28.2
2023-01-23T17:43:48.156Z,30.4
2023-01-23T17:44:55.079Z,27.7
2023-01-23T17:46:02.228Z,27.8
2023-01-23T17:47:09.448Z,28.2
2023-01-23T17:48:16.920Z,29.2
2023-01-23T17:49:32.536Z,29.8
2023-01-23T17:50:39.512Z,31.9
2023-01-23T18:25:07.749Z,25.8
2023-01-23T18:26:18.519Z,26.6
2023-01-23T18:27:30.628Z,25.8
2023-01-23T18:28:37.746Z,25.1
2023-01-23T18:29:45.089Z,26.4
2023-01-23T18:31:00.514Z,26.8
2023-01-23T18:32:08.213Z,27.9
2023-01-23T18:33:26.684Z,28.1
2023-01-23T18:34:38.748Z,28.6
2023-01-23T18:35:54.001Z,28.8
2023-01-23T18:37:12.171Z,28.1
2023-01-23T18:38:23.780Z,26.9
2023-01-23T18:44:23.558Z,26.9
2023-01-23T18:45:31.879Z,25.4
2023-01-23T18:46:40.149Z,26.1
2023-01-23T18:47:47.239Z,27.5
2023-01-23T18:48:54.308Z,26.4
2023-01-23T18:51:11.068Z,26.4
2023-01-23T18:52:23.180Z,28.3
2023-01-23T18:53:30.211Z,26.7
2023-01-23T18:54:40.123Z,27.9
2023-01-23T18:55:53.165Z,26.8
2023-01-23T18:57:45.697Z,26.8
2023-01-23T18:59:09.943Z,28.3
2023-01-23T19:00:10.766Z,28
2023-01-23T19:01:26.311Z,27.7
2023-01-23T19:02:38.415Z,29
2023-01-23T19:30:41.691Z,23.3
2023-01-23T19:32:03.922Z,20.1
2023-01-23T19:32:56.835Z,21.2
2023-01-23T19:34:03.833Z,21.2
2023-01-23T19:35:14.125Z,21.3
2023-01-23T19:40:15.955Z,21.3
2023-01-23T19:41:23.074Z,20.5
2023-01-23T19:42:33.779Z,22.2
2023-01-23T19:43:38.056Z,22.2
2023-01-23T19:44:45.450Z,21.4
2023-01-23T19:49:05.100Z,21.1
2023-01-23T19:50:12.984Z,21.9
2023-01-23T19:51:20.760Z,21.7
2023-01-23T19:52:27.635Z,23.8
2023-01-23T20:16:50.574Z,20.8
2023-01-23T20:17:58.329Z,21.7
2023-01-23T20:19:05.724Z,21.7
2023-01-23T20:20:18.863Z,21.6
2023-01-23T20:21:26.336Z,20.2
2023-01-23T20:22:33.479Z,21.3
2023-01-23T20:23:43.525Z,22.1
2023-01-23T20:24:50.896Z,21.2
2023-01-23T20:26:52.121Z,21.2
2023-01-23T20:27:59.083Z,21
2023-01-23T20:29:06.220Z,20.8
2023-01-23T20:30:13.377Z,19.8
2023-01-23T20:31:20.947Z,20.3
2023-01-23T20:45:29.253Z,21.2
2023-01-23T20:46:36.041Z,19.2
2023-01-23T20:47:43.000Z,19.5
2023-01-23T20:48:50.626Z,19.7
2023-01-23T20:56:04.115Z,20.9
2023-01-23T20:57:12.227Z,20.5
2023-01-23T20:58:19.203Z,20.2
2023-01-23T20:59:31.514Z,19.3
2023-01-23T21:01:30.988Z,19.3
2023-01-23T21:02:38.076Z,21.6
2023-01-23T21:03:46.672Z,20.9